sensor_id;sensor_type;location;lat;lon;timestamp;temperature;humidity
1123;DHT22;548;48.778;9.252;2023-07-24T00:00:34;20.80;99.90
1123;DHT22;548;48.778;9.252;2023-07-24T00:03:01;20.90;99.90
1123;DHT22;548;48.778;9.252;2023-07-24T00:05:29;20.90;99.90
1123;DHT22;548;48.778;9.252;2023-07-24T00:07:56;20.80;99.90
1123;DHT22;548;48.778;9.252;2023-07-24T00:10:22;20.70;99.90
1123;DHT22;548;48.778;9.252;2023-07-24T00:12:49;20.70;99.90
1123;DHT22;548;48.778;9.252;2023-07-24T00:15:16;20.70;99.90
1123;DHT22;548;48.778;9.252;2023-07-24T00:17:43;20.80;99.90
1123;DHT22;548;48.778;9.252;2023-07-24T00:20:10;20.90;99.90
1123;DHT22;548;48.778;9.252;2023-07-24T00:22:38;20.90;99.90
1123;DHT22;548;48.778;9.252;2023-07-24T00:25:06;20.90;99.90
1123;DHT22;548;48.778;9.252;2023-07-24T00:27:34;20.80;99.90
1123;DHT22;548;48.778;9.252;2023-07-24T00:30:01;20.30;99.90
1123;DHT22;548;48.778;9.252;2023-07-24T00:32:28;20.00;99.90
1123;DHT22;548;48.778;9.252;2023-07-24T00:34:54;19.60;99.90
1123;DHT22;548;48.778;9.252;2023-07-24T00:37:21;19.40;99.90
1123;DHT22;548;48.778;9.252;2023-07-24T00:39:49;19.20;99.90
1123;DHT22;548;48.778;9.252;2023-07-24T00:42:16;19.00;99.90
1123;DHT22;548;48.778;9.252;2023-07-24T00:44:43;18.80;99.90
1123;DHT22;548;48.778;9.252;2023-07-24T00:47:09;18.80;99.90
1123;DHT22;548;48.778;9.252;2023-07-24T00:49:36;18.70;99.90
1123;DHT22;548;48.778;9.252;2023-07-24T00:52:03;18.70;99.90
1123;DHT22;548;48.778;9.252;2023-07-24T00:54:32;18.70;99.90
1123;DHT22;548;48.778;9.252;2023-07-24T00:57:01;18.70;99.90
1123;DHT22;548;48.778;9.252;2023-07-24T00:59:28;18.70;99.90
1123;DHT22;548;48.778;9.252;2023-07-24T01:01:55;18.70;99.90
1123;DHT22;548;48.778;9.252;2023-07-24T01:04:22;18.70;99.90
1123;DHT22;548;48.778;9.252;2023-07-24T01:06:49;18.70;99.90
1123;DHT22;548;48.778;9.252;2023-07-24T01:09:16;18.70;99.90
1123;DHT22;548;48.778;9.252;2023-07-24T01:11:46;18.80;99.90
1123;DHT22;548;48.778;9.252;2023-07-24T01:14:20;18.70;99.90
1123;DHT22;548;48.778;9.252;2023-07-24T01:16:48;18.70;99.90
1123;DHT22;548;48.778;9.252;2023-07-24T01:19:20;18.70;99.90
1123;DHT22;548;48.778;9.252;2023-07-24T01:21:58;18.80;99.90
1123;DHT22;548;48.778;9.252;2023-07-24T01:24:33;18.90;99.90
1123;DHT22;548;48.778;9.252;2023-07-24T01:27:04;19.00;99.90
1123;DHT22;548;48.778;9.252;2023-07-24T01:29:33;19.20;99.90
1123;DHT22;548;48.778;9.252;2023-07-24T01:32:00;19.30;99.90
1123;DHT22;548;48.778;9.252;2023-07-24T01:34:27;19.40;99.90
1123;DHT22;548;48.778;9.252;2023-07-24T01:36:53;19.40;99.90
1123;DHT22;548;48.778;9.252;2023-07-24T01:39:20;19.60;99.90
1123;DHT22;548;48.778;9.252;2023-07-24T01:41:47;19.60;99.90
1123;DHT22;548;48.778;9.252;2023-07-24T01:44:16;19.60;99.90
1123;DHT22;548;48.778;9.252;2023-07-24T01:46:42;19.60;99.90
1123;DHT22;548;48.778;9.252;2023-07-24T01:49:10;19.60;99.90
1123;DHT22;548;48.778;9.252;2023-07-24T01:51:37;19.60;99.90
1123;DHT22;548;48.778;9.252;2023-07-24T01:54:03;19.60;99.90
1123;DHT22;548;48.778;9.252;2023-07-24T01:56:30;19.50;99.90
1123;DHT22;548;48.778;9.252;2023-07-24T01:58:57;19.50;99.90
1123;DHT22;548;48.778;9.252;2023-07-24T02:01:25;19.50;99.90
1123;DHT22;548;48.778;9.252;2023-07-24T02:03:51;19.50;99.90
1123;DHT22;548;48.778;9.252;2023-07-24T02:06:18;19.50;99.90
1123;DHT22;548;48.778;9.252;2023-07-24T02:08:45;19.50;99.90
1123;DHT22;548;48.778;9.252;2023-07-24T02:11:14;19.40;99.90
1123;DHT22;548;48.778;9.252;2023-07-24T02:13:42;19.40;99.90
1123;DHT22;548;48.778;9.252;2023-07-24T02:16:09;19.40;99.90
1123;DHT22;548;48.778;9.252;2023-07-24T02:18:38;19.40;99.90
1123;DHT22;548;48.778;9.252;2023-07-24T02:21:05;19.30;99.90
1123;DHT22;548;48.778;9.252;2023-07-24T02:23:31;19.30;99.90
1123;DHT22;548;48.778;9.252;2023-07-24T02:25:58;19.30;99.90
1123;DHT22;548;48.778;9.252;2023-07-24T02:28:25;19.30;99.90
1123;DHT22;548;48.778;9.252;2023-07-24T02:30:52;19.30;99.90
1123;DHT22;548;48.778;9.252;2023-07-24T02:33:21;19.40;99.90
1123;DHT22;548;48.778;9.252;2023-07-24T02:35:52;19.40;99.90
1123;DHT22;548;48.778;9.252;2023-07-24T02:38:18;19.40;99.90
1123;DHT22;548;48.778;9.252;2023-07-24T02:40:45;19.40;99.90
1123;DHT22;548;48.778;9.252;2023-07-24T02:43:12;19.40;99.90
1123;DHT22;548;48.778;9.252;2023-07-24T02:45:39;19.40;99.90
1123;DHT22;548;48.778;9.252;2023-07-24T02:48:06;19.40;99.90
1123;DHT22;548;48.778;9.252;2023-07-24T02:50:33;19.40;99.90
1123;DHT22;548;48.778;9.252;2023-07-24T02:53:01;19.40;99.90
1123;DHT22;548;48.778;9.252;2023-07-24T02:55:28;19.40;99.90
1123;DHT22;548;48.778;9.252;2023-07-24T02:57:55;19.30;99.90
1123;DHT22;548;48.778;9.252;2023-07-24T03:00:21;19.20;99.90
1123;DHT22;548;48.778;9.252;2023-07-24T03:02:48;19.20;99.90
1123;DHT22;548;48.778;9.252;2023-07-24T03:05:15;19.10;99.90
1123;DHT22;548;48.778;9.252;2023-07-24T03:07:42;19.20;99.90
1123;DHT22;548;48.778;9.252;2023-07-24T03:10:10;19.20;99.90
1123;DHT22;548;48.778;9.252;2023-07-24T03:12:37;19.20;99.90
1123;DHT22;548;48.778;9.252;2023-07-24T03:15:04;19.10;99.90
1123;DHT22;548;48.778;9.252;2023-07-24T03:17:31;19.00;99.90
1123;DHT22;548;48.778;9.252;2023-07-24T03:19:59;19.00;99.90
1123;DHT22;548;48.778;9.252;2023-07-24T03:22:33;19.00;99.90
1123;DHT22;548;48.778;9.252;2023-07-24T03:25:00;18.80;99.90
1123;DHT22;548;48.778;9.252;2023-07-24T03:27:28;18.80;99.90
1123;DHT22;548;48.778;9.252;2023-07-24T03:29:55;18.70;99.90
1123;DHT22;548;48.778;9.252;2023-07-24T03:35:03;18.70;99.90
1123;DHT22;548;48.778;9.252;2023-07-24T03:37:30;18.60;99.90
1123;DHT22;548;48.778;9.252;2023-07-24T03:39:57;18.60;99.90
1123;DHT22;548;48.778;9.252;2023-07-24T03:42:28;18.60;99.90
1123;DHT22;548;48.778;9.252;2023-07-24T03:44:56;18.70;99.90
1123;DHT22;548;48.778;9.252;2023-07-24T03:47:23;18.60;99.90
1123;DHT22;548;48.778;9.252;2023-07-24T03:49:51;18.70;99.90
1123;DHT22;548;48.778;9.252;2023-07-24T03:52:17;18.70;99.90
1123;DHT22;548;48.778;9.252;2023-07-24T03:54:44;18.80;99.90
1123;DHT22;548;48.778;9.252;2023-07-24T03:57:11;18.90;99.90
1123;DHT22;548;48.778;9.252;2023-07-24T03:59:39;18.90;99.90
1123;DHT22;548;48.778;9.252;2023-07-24T04:02:06;19.00;99.90
1123;DHT22;548;48.778;9.252;2023-07-24T04:04:33;19.10;99.90
1123;DHT22;548;48.778;9.252;2023-07-24T04:06:59;19.10;99.90
1123;DHT22;548;48.778;9.252;2023-07-24T04:09:26;19.20;99.90
1123;DHT22;548;48.778;9.252;2023-07-24T04:11:53;19.20;99.90
1123;DHT22;548;48.778;9.252;2023-07-24T04:14:20;19.20;99.90
1123;DHT22;548;48.778;9.252;2023-07-24T04:16:48;19.20;99.90
1123;DHT22;548;48.778;9.252;2023-07-24T04:19:14;19.30;99.90
1123;DHT22;548;48.778;9.252;2023-07-24T04:21:41;19.30;99.90
1123;DHT22;548;48.778;9.252;2023-07-24T04:24:08;19.30;99.90
1123;DHT22;548;48.778;9.252;2023-07-24T04:26:34;19.30;99.90
1123;DHT22;548;48.778;9.252;2023-07-24T04:29:01;19.40;99.90
1123;DHT22;548;48.778;9.252;2023-07-24T04:31:28;19.40;99.90
1123;DHT22;548;48.778;9.252;2023-07-24T04:33:56;19.50;99.90
1123;DHT22;548;48.778;9.252;2023-07-24T04:36:23;19.50;99.90
1123;DHT22;548;48.778;9.252;2023-07-24T04:38:49;19.50;99.90
1123;DHT22;548;48.778;9.252;2023-07-24T04:41:16;19.60;99.90
1123;DHT22;548;48.778;9.252;2023-07-24T04:43:43;19.60;99.90
1123;DHT22;548;48.778;9.252;2023-07-24T04:46:09;19.70;99.90
1123;DHT22;548;48.778;9.252;2023-07-24T04:48:36;19.80;99.90
1123;DHT22;548;48.778;9.252;2023-07-24T04:51:04;19.80;99.90
1123;DHT22;548;48.778;9.252;2023-07-24T04:53:31;19.90;99.90
1123;DHT22;548;48.778;9.252;2023-07-24T04:55:57;19.90;99.90
1123;DHT22;548;48.778;9.252;2023-07-24T04:58:24;19.90;99.90
1123;DHT22;548;48.778;9.252;2023-07-24T05:00:51;20.00;99.90
1123;DHT22;548;48.778;9.252;2023-07-24T05:03:17;19.90;99.90
1123;DHT22;548;48.778;9.252;2023-07-24T05:05:48;20.00;99.90
1123;DHT22;548;48.778;9.252;2023-07-24T05:08:16;20.10;99.90
1123;DHT22;548;48.778;9.252;2023-07-24T05:10:43;20.20;99.90
1123;DHT22;548;48.778;9.252;2023-07-24T05:13:09;20.20;99.90
1123;DHT22;548;48.778;9.252;2023-07-24T05:15:36;20.20;99.90
1123;DHT22;548;48.778;9.252;2023-07-24T05:18:03;20.20;99.90
1123;DHT22;548;48.778;9.252;2023-07-24T05:20:29;20.30;99.90
1123;DHT22;548;48.778;9.252;2023-07-24T05:22:56;20.40;99.90
1123;DHT22;548;48.778;9.252;2023-07-24T05:25:24;20.40;99.90
1123;DHT22;548;48.778;9.252;2023-07-24T05:27:51;20.50;99.90
1123;DHT22;548;48.778;9.252;2023-07-24T05:30:17;20.60;99.90
1123;DHT22;548;48.778;9.252;2023-07-24T05:32:44;20.60;99.90
1123;DHT22;548;48.778;9.252;2023-07-24T05:35:11;20.50;99.90
1123;DHT22;548;48.778;9.252;2023-07-24T05:37:37;20.60;99.90
1123;DHT22;548;48.778;9.252;2023-07-24T05:40:08;20.60;99.90
1123;DHT22;548;48.778;9.252;2023-07-24T05:42:37;20.70;99.90
1123;DHT22;548;48.778;9.252;2023-07-24T05:45:07;20.50;99.90
1123;DHT22;548;48.778;9.252;2023-07-24T05:47:34;20.50;99.90
1123;DHT22;548;48.778;9.252;2023-07-24T05:50:01;20.50;99.90
1123;DHT22;548;48.778;9.252;2023-07-24T05:52:28;20.50;99.90
1123;DHT22;548;48.778;9.252;2023-07-24T05:54:55;20.60;99.90
1123;DHT22;548;48.778;9.252;2023-07-24T05:57:22;20.70;99.90
1123;DHT22;548;48.778;9.252;2023-07-24T05:59:50;20.80;99.90
1123;DHT22;548;48.778;9.252;2023-07-24T06:02:17;20.90;99.90
1123;DHT22;548;48.778;9.252;2023-07-24T06:04:44;20.90;99.90
1123;DHT22;548;48.778;9.252;2023-07-24T06:07:10;20.90;99.90
1123;DHT22;548;48.778;9.252;2023-07-24T06:09:37;21.00;99.90
1123;DHT22;548;48.778;9.252;2023-07-24T06:12:04;21.00;99.90
1123;DHT22;548;48.778;9.252;2023-07-24T06:14:31;21.10;99.90
1123;DHT22;548;48.778;9.252;2023-07-24T06:16:59;21.10;99.90
1123;DHT22;548;48.778;9.252;2023-07-24T06:19:26;21.30;99.90
1123;DHT22;548;48.778;9.252;2023-07-24T06:21:52;21.30;99.90
1123;DHT22;548;48.778;9.252;2023-07-24T06:24:19;21.30;99.90
1123;DHT22;548;48.778;9.252;2023-07-24T06:26:46;21.30;99.90
1123;DHT22;548;48.778;9.252;2023-07-24T06:29:13;21.30;99.90
1123;DHT22;548;48.778;9.252;2023-07-24T06:31:40;21.20;99.90
1123;DHT22;548;48.778;9.252;2023-07-24T06:34:08;21.20;99.90
1123;DHT22;548;48.778;9.252;2023-07-24T06:36:34;21.30;99.90
1123;DHT22;548;48.778;9.252;2023-07-24T06:39:01;21.40;99.90
1123;DHT22;548;48.778;9.252;2023-07-24T06:41:28;21.50;99.90
1123;DHT22;548;48.778;9.252;2023-07-24T06:43:54;21.70;99.90
1123;DHT22;548;48.778;9.252;2023-07-24T06:46:21;21.80;99.90
1123;DHT22;548;48.778;9.252;2023-07-24T06:48:48;22.00;99.90
1123;DHT22;548;48.778;9.252;2023-07-24T06:51:16;22.00;99.90
1123;DHT22;548;48.778;9.252;2023-07-24T06:53:42;22.10;99.90
1123;DHT22;548;48.778;9.252;2023-07-24T06:56:09;22.20;99.90
1123;DHT22;548;48.778;9.252;2023-07-24T06:58:36;22.20;99.90
1123;DHT22;548;48.778;9.252;2023-07-24T07:01:05;22.30;99.90
1123;DHT22;548;48.778;9.252;2023-07-24T07:03:32;22.30;99.90
1123;DHT22;548;48.778;9.252;2023-07-24T07:06:00;22.20;99.90
1123;DHT22;548;48.778;9.252;2023-07-24T07:08:29;22.10;99.90
1123;DHT22;548;48.778;9.252;2023-07-24T07:10:56;22.00;99.90
1123;DHT22;548;48.778;9.252;2023-07-24T07:13:23;22.00;99.90
1123;DHT22;548;48.778;9.252;2023-07-24T07:15:49;22.00;99.90
1123;DHT22;548;48.778;9.252;2023-07-24T07:18:16;22.10;99.90
1123;DHT22;548;48.778;9.252;2023-07-24T07:20:45;22.10;99.90
1123;DHT22;548;48.778;9.252;2023-07-24T07:23:12;22.10;99.90
1123;DHT22;548;48.778;9.252;2023-07-24T07:25:40;22.20;99.90
1123;DHT22;548;48.778;9.252;2023-07-24T07:28:08;22.30;99.90
1123;DHT22;548;48.778;9.252;2023-07-24T07:30:35;22.30;99.90
1123;DHT22;548;48.778;9.252;2023-07-24T07:33:02;22.30;99.90
1123;DHT22;548;48.778;9.252;2023-07-24T07:35:30;22.30;99.90
1123;DHT22;548;48.778;9.252;2023-07-24T07:37:57;22.20;99.90
1123;DHT22;548;48.778;9.252;2023-07-24T07:40:24;22.20;99.90
1123;DHT22;548;48.778;9.252;2023-07-24T07:42:53;22.30;99.90
1123;DHT22;548;48.778;9.252;2023-07-24T07:45:20;22.40;99.90
1123;DHT22;548;48.778;9.252;2023-07-24T07:47:47;22.50;99.90
1123;DHT22;548;48.778;9.252;2023-07-24T07:50:14;22.60;99.90
1123;DHT22;548;48.778;9.252;2023-07-24T07:52:40;22.80;99.90
1123;DHT22;548;48.778;9.252;2023-07-24T07:55:08;23.00;99.90
1123;DHT22;548;48.778;9.252;2023-07-24T07:57:34;23.10;99.90
1123;DHT22;548;48.778;9.252;2023-07-24T08:00:03;23.30;99.90
1123;DHT22;548;48.778;9.252;2023-07-24T08:02:32;23.30;99.90
1123;DHT22;548;48.778;9.252;2023-07-24T08:04:59;23.40;99.90
1123;DHT22;548;48.778;9.252;2023-07-24T08:07:26;23.40;99.90
1123;DHT22;548;48.778;9.252;2023-07-24T08:09:53;23.30;99.90
1123;DHT22;548;48.778;9.252;2023-07-24T08:12:19;23.30;99.90
1123;DHT22;548;48.778;9.252;2023-07-24T08:14:46;23.20;99.90
1123;DHT22;548;48.778;9.252;2023-07-24T08:17:14;23.20;99.90
1123;DHT22;548;48.778;9.252;2023-07-24T08:19:41;23.20;99.90
1123;DHT22;548;48.778;9.252;2023-07-24T08:22:07;23.20;99.90
1123;DHT22;548;48.778;9.252;2023-07-24T08:24:34;22.80;99.90
1123;DHT22;548;48.778;9.252;2023-07-24T08:27:01;22.50;99.90
1123;DHT22;548;48.778;9.252;2023-07-24T08:29:28;22.10;99.90
1123;DHT22;548;48.778;9.252;2023-07-24T08:31:55;21.80;99.90
1123;DHT22;548;48.778;9.252;2023-07-24T08:34:23;21.50;99.90
1123;DHT22;548;48.778;9.252;2023-07-24T08:36:49;21.20;99.90
1123;DHT22;548;48.778;9.252;2023-07-24T08:39:16;21.00;99.90
1123;DHT22;548;48.778;9.252;2023-07-24T08:41:43;20.90;99.90
1123;DHT22;548;48.778;9.252;2023-07-24T08:44:10;20.80;99.90
1123;DHT22;548;48.778;9.252;2023-07-24T08:46:38;20.70;99.90
1123;DHT22;548;48.778;9.252;2023-07-24T08:49:09;20.60;99.90
1123;DHT22;548;48.778;9.252;2023-07-24T08:51:40;20.50;99.90
1123;DHT22;548;48.778;9.252;2023-07-24T08:54:07;20.60;99.90
1123;DHT22;548;48.778;9.252;2023-07-24T08:56:36;20.50;99.90
1123;DHT22;548;48.778;9.252;2023-07-24T08:59:03;20.60;99.90
1123;DHT22;548;48.778;9.252;2023-07-24T09:01:29;20.60;99.90
1123;DHT22;548;48.778;9.252;2023-07-24T09:03:56;20.60;99.90
1123;DHT22;548;48.778;9.252;2023-07-24T09:06:23;20.70;99.90
1123;DHT22;548;48.778;9.252;2023-07-24T09:08:53;20.80;99.90
1123;DHT22;548;48.778;9.252;2023-07-24T09:11:20;20.90;99.90
1123;DHT22;548;48.778;9.252;2023-07-24T09:13:47;20.90;99.90
1123;DHT22;548;48.778;9.252;2023-07-24T09:16:21;21.10;99.90
1123;DHT22;548;48.778;9.252;2023-07-24T09:18:48;21.40;99.90
1123;DHT22;548;48.778;9.252;2023-07-24T09:21:27;21.90;99.90
1123;DHT22;548;48.778;9.252;2023-07-24T09:23:55;22.50;99.90
1123;DHT22;548;48.778;9.252;2023-07-24T09:26:22;22.90;99.90
1123;DHT22;548;48.778;9.252;2023-07-24T09:28:52;23.10;99.90
1123;DHT22;548;48.778;9.252;2023-07-24T09:31:19;23.10;99.90
1123;DHT22;548;48.778;9.252;2023-07-24T09:33:46;23.30;99.90
1123;DHT22;548;48.778;9.252;2023-07-24T09:36:13;23.40;99.90
1123;DHT22;548;48.778;9.252;2023-07-24T09:38:40;23.60;99.90
1123;DHT22;548;48.778;9.252;2023-07-24T09:41:08;23.60;99.90
1123;DHT22;548;48.778;9.252;2023-07-24T09:43:37;23.50;99.90
1123;DHT22;548;48.778;9.252;2023-07-24T09:46:04;23.50;99.90
1123;DHT22;548;48.778;9.252;2023-07-24T09:48:32;23.30;99.90
1123;DHT22;548;48.778;9.252;2023-07-24T09:51:00;23.30;99.90
1123;DHT22;548;48.778;9.252;2023-07-24T09:53:33;23.30;99.90
1123;DHT22;548;48.778;9.252;2023-07-24T09:56:02;23.30;99.90
1123;DHT22;548;48.778;9.252;2023-07-24T09:58:33;23.40;99.90
1123;DHT22;548;48.778;9.252;2023-07-24T10:01:02;23.70;99.90
1123;DHT22;548;48.778;9.252;2023-07-24T10:03:29;24.00;99.90
1123;DHT22;548;48.778;9.252;2023-07-24T10:05:56;23.90;99.90
1123;DHT22;548;48.778;9.252;2023-07-24T10:08:24;23.90;99.90
1123;DHT22;548;48.778;9.252;2023-07-24T10:10:51;23.90;99.90
1123;DHT22;548;48.778;9.252;2023-07-24T10:13:19;23.70;99.90
1123;DHT22;548;48.778;9.252;2023-07-24T10:15:48;23.60;99.90
1123;DHT22;548;48.778;9.252;2023-07-24T10:18:16;23.60;99.90
1123;DHT22;548;48.778;9.252;2023-07-24T10:20:43;23.40;99.90
1123;DHT22;548;48.778;9.252;2023-07-24T10:23:11;23.40;99.90
1123;DHT22;548;48.778;9.252;2023-07-24T10:25:45;23.20;99.90
1123;DHT22;548;48.778;9.252;2023-07-24T10:28:12;23.00;99.90
1123;DHT22;548;48.778;9.252;2023-07-24T10:30:42;22.90;99.90
1123;DHT22;548;48.778;9.252;2023-07-24T10:33:12;22.80;99.90
1123;DHT22;548;48.778;9.252;2023-07-24T10:35:40;22.70;99.90
1123;DHT22;548;48.778;9.252;2023-07-24T10:38:07;22.60;99.90
1123;DHT22;548;48.778;9.252;2023-07-24T10:40:34;22.40;99.90
1123;DHT22;548;48.778;9.252;2023-07-24T10:43:04;22.30;99.90
1123;DHT22;548;48.778;9.252;2023-07-24T10:45:42;22.10;99.90
1123;DHT22;548;48.778;9.252;2023-07-24T10:48:10;22.00;99.90
1123;DHT22;548;48.778;9.252;2023-07-24T10:50:39;21.70;99.90
1123;DHT22;548;48.778;9.252;2023-07-24T10:53:05;21.50;99.90
1123;DHT22;548;48.778;9.252;2023-07-24T10:55:32;21.20;99.90
1123;DHT22;548;48.778;9.252;2023-07-24T10:57:59;21.00;99.90
1123;DHT22;548;48.778;9.252;2023-07-24T11:00:26;20.80;99.90
1123;DHT22;548;48.778;9.252;2023-07-24T11:02:53;20.60;99.90
1123;DHT22;548;48.778;9.252;2023-07-24T11:05:22;20.50;99.90
1123;DHT22;548;48.778;9.252;2023-07-24T11:07:49;20.40;99.90
1123;DHT22;548;48.778;9.252;2023-07-24T11:10:16;20.40;99.90
1123;DHT22;548;48.778;9.252;2023-07-24T11:12:43;20.30;99.90
1123;DHT22;548;48.778;9.252;2023-07-24T11:15:10;20.20;99.90
1123;DHT22;548;48.778;9.252;2023-07-24T11:17:38;20.10;99.90
1123;DHT22;548;48.778;9.252;2023-07-24T11:20:08;20.00;99.90
1123;DHT22;548;48.778;9.252;2023-07-24T11:22:38;19.90;99.90
1123;DHT22;548;48.778;9.252;2023-07-24T11:25:05;19.80;99.90
1123;DHT22;548;48.778;9.252;2023-07-24T11:27:32;19.70;99.90
1123;DHT22;548;48.778;9.252;2023-07-24T11:29:59;19.70;99.90
1123;DHT22;548;48.778;9.252;2023-07-24T11:32:26;19.70;99.90
1123;DHT22;548;48.778;9.252;2023-07-24T11:34:52;19.70;99.90
1123;DHT22;548;48.778;9.252;2023-07-24T11:37:20;19.70;99.90
1123;DHT22;548;48.778;9.252;2023-07-24T11:39:56;19.80;99.90
1123;DHT22;548;48.778;9.252;2023-07-24T11:42:25;19.90;99.90
1123;DHT22;548;48.778;9.252;2023-07-24T11:44:53;19.90;99.90
1123;DHT22;548;48.778;9.252;2023-07-24T11:47:20;20.20;99.90
1123;DHT22;548;48.778;9.252;2023-07-24T11:49:56;20.70;99.90
1123;DHT22;548;48.778;9.252;2023-07-24T11:52:23;21.30;99.90
1123;DHT22;548;48.778;9.252;2023-07-24T11:54:57;21.80;99.90
1123;DHT22;548;48.778;9.252;2023-07-24T11:57:27;22.30;99.90
1123;DHT22;548;48.778;9.252;2023-07-24T11:59:54;22.10;99.90
1123;DHT22;548;48.778;9.252;2023-07-24T12:02:23;22.00;99.90
1123;DHT22;548;48.778;9.252;2023-07-24T12:04:55;21.60;99.90
1123;DHT22;548;48.778;9.252;2023-07-24T12:07:24;21.60;99.90
1123;DHT22;548;48.778;9.252;2023-07-24T12:09:54;21.70;99.90
1123;DHT22;548;48.778;9.252;2023-07-24T12:12:22;21.70;99.90
1123;DHT22;548;48.778;9.252;2023-07-24T12:14:49;21.70;99.90
1123;DHT22;548;48.778;9.252;2023-07-24T12:17:18;21.70;99.90
1123;DHT22;548;48.778;9.252;2023-07-24T12:19:45;22.00;99.90
1123;DHT22;548;48.778;9.252;2023-07-24T12:22:13;22.20;99.90
1123;DHT22;548;48.778;9.252;2023-07-24T12:24:40;22.30;99.90
1123;DHT22;548;48.778;9.252;2023-07-24T12:27:06;22.40;99.90
1123;DHT22;548;48.778;9.252;2023-07-24T12:29:34;22.50;99.90
1123;DHT22;548;48.778;9.252;2023-07-24T12:32:01;22.70;99.90
1123;DHT22;548;48.778;9.252;2023-07-24T12:34:28;23.10;99.90
1123;DHT22;548;48.778;9.252;2023-07-24T12:36:55;23.20;99.90
1123;DHT22;548;48.778;9.252;2023-07-24T12:39:22;23.50;99.90
1123;DHT22;548;48.778;9.252;2023-07-24T12:41:48;23.80;99.90
1123;DHT22;548;48.778;9.252;2023-07-24T12:44:15;23.40;99.90
1123;DHT22;548;48.778;9.252;2023-07-24T12:46:43;23.30;99.90
1123;DHT22;548;48.778;9.252;2023-07-24T12:49:10;23.20;99.90
1123;DHT22;548;48.778;9.252;2023-07-24T12:51:37;23.10;99.90
1123;DHT22;548;48.778;9.252;2023-07-24T12:54:03;23.30;99.90
1123;DHT22;548;48.778;9.252;2023-07-24T12:56:30;23.70;99.90
1123;DHT22;548;48.778;9.252;2023-07-24T12:58:57;24.20;99.90
1123;DHT22;548;48.778;9.252;2023-07-24T13:01:23;24.70;99.90
1123;DHT22;548;48.778;9.252;2023-07-24T13:03:54;25.10;99.90
1123;DHT22;548;48.778;9.252;2023-07-24T13:06:21;25.80;99.90
1123;DHT22;548;48.778;9.252;2023-07-24T13:08:47;26.20;99.90
1123;DHT22;548;48.778;9.252;2023-07-24T13:11:14;26.10;99.90
1123;DHT22;548;48.778;9.252;2023-07-24T13:13:41;26.30;99.90
1123;DHT22;548;48.778;9.252;2023-07-24T13:16:08;26.60;99.90
1123;DHT22;548;48.778;9.252;2023-07-24T13:18:34;26.80;99.90
1123;DHT22;548;48.778;9.252;2023-07-24T13:21:02;26.70;99.90
1123;DHT22;548;48.778;9.252;2023-07-24T13:23:31;27.20;99.90
1123;DHT22;548;48.778;9.252;2023-07-24T13:25:58;27.70;99.90
1123;DHT22;548;48.778;9.252;2023-07-24T13:28:25;28.00;99.90
1123;DHT22;548;48.778;9.252;2023-07-24T13:30:52;27.50;99.90
1123;DHT22;548;48.778;9.252;2023-07-24T13:33:18;27.40;99.90
1123;DHT22;548;48.778;9.252;2023-07-24T13:35:47;27.10;99.90
1123;DHT22;548;48.778;9.252;2023-07-24T13:38:16;26.30;99.90
1123;DHT22;548;48.778;9.252;2023-07-24T13:40:43;26.00;99.90
1123;DHT22;548;48.778;9.252;2023-07-24T13:43:09;26.00;99.90
1123;DHT22;548;48.778;9.252;2023-07-24T13:45:36;26.20;99.90
1123;DHT22;548;48.778;9.252;2023-07-24T13:48:03;26.20;99.90
1123;DHT22;548;48.778;9.252;2023-07-24T13:50:30;26.10;99.90
1123;DHT22;548;48.778;9.252;2023-07-24T13:52:57;26.20;99.90
1123;DHT22;548;48.778;9.252;2023-07-24T13:55:25;26.40;99.90
1123;DHT22;548;48.778;9.252;2023-07-24T13:57:52;26.70;99.90
1123;DHT22;548;48.778;9.252;2023-07-24T14:00:18;26.90;99.90
1123;DHT22;548;48.778;9.252;2023-07-24T14:02:45;27.00;99.90
1123;DHT22;548;48.778;9.252;2023-07-24T14:05:12;27.70;99.90
1123;DHT22;548;48.778;9.252;2023-07-24T14:07:39;28.50;98.60
1123;DHT22;548;48.778;9.252;2023-07-24T14:10:06;28.90;97.50
1123;DHT22;548;48.778;9.252;2023-07-24T14:12:35;28.90;96.80
1123;DHT22;548;48.778;9.252;2023-07-24T14:15:01;28.80;97.30
1123;DHT22;548;48.778;9.252;2023-07-24T14:17:28;29.00;96.70
1123;DHT22;548;48.778;9.252;2023-07-24T14:19:55;28.70;96.60
1123;DHT22;548;48.778;9.252;2023-07-24T14:22:22;28.70;97.40
1123;DHT22;548;48.778;9.252;2023-07-24T14:24:49;28.90;97.10
1123;DHT22;548;48.778;9.252;2023-07-24T14:27:15;29.20;95.70
1123;DHT22;548;48.778;9.252;2023-07-24T14:29:43;28.90;94.90
1123;DHT22;548;48.778;9.252;2023-07-24T14:32:10;28.60;95.40
1123;DHT22;548;48.778;9.252;2023-07-24T14:34:37;28.50;96.00
1123;DHT22;548;48.778;9.252;2023-07-24T14:37:04;27.70;97.20
1123;DHT22;548;48.778;9.252;2023-07-24T14:39:31;27.20;98.60
1123;DHT22;548;48.778;9.252;2023-07-24T14:41:58;26.80;99.60
1123;DHT22;548;48.778;9.252;2023-07-24T14:44:25;26.60;99.90
1123;DHT22;548;48.778;9.252;2023-07-24T14:46:53;26.60;99.90
1123;DHT22;548;48.778;9.252;2023-07-24T14:49:19;26.90;99.90
1123;DHT22;548;48.778;9.252;2023-07-24T14:51:46;27.00;99.90
1123;DHT22;548;48.778;9.252;2023-07-24T14:54:13;26.90;99.90
1123;DHT22;548;48.778;9.252;2023-07-24T14:56:39;26.70;99.90
1123;DHT22;548;48.778;9.252;2023-07-24T14:59:06;26.70;99.80
1123;DHT22;548;48.778;9.252;2023-07-24T15:01:33;26.70;99.20
1123;DHT22;548;48.778;9.252;2023-07-24T15:04:01;26.40;98.90
1123;DHT22;548;48.778;9.252;2023-07-24T15:06:27;26.30;98.90
1123;DHT22;548;48.778;9.252;2023-07-24T15:08:54;26.20;99.10
1123;DHT22;548;48.778;9.252;2023-07-24T15:11:21;26.40;99.00
1123;DHT22;548;48.778;9.252;2023-07-24T15:13:48;26.40;98.80
1123;DHT22;548;48.778;9.252;2023-07-24T15:16:15;26.40;98.80
1123;DHT22;548;48.778;9.252;2023-07-24T15:18:42;26.60;98.80
1123;DHT22;548;48.778;9.252;2023-07-24T15:21:10;26.60;98.80
1123;DHT22;548;48.778;9.252;2023-07-24T15:23:37;26.30;99.80
1123;DHT22;548;48.778;9.252;2023-07-24T15:26:03;26.20;99.90
1123;DHT22;548;48.778;9.252;2023-07-24T15:28:30;26.10;99.90
1123;DHT22;548;48.778;9.252;2023-07-24T15:30:57;25.90;99.90
1123;DHT22;548;48.778;9.252;2023-07-24T15:33:24;25.90;99.90
1123;DHT22;548;48.778;9.252;2023-07-24T15:35:50;25.80;99.90
1123;DHT22;548;48.778;9.252;2023-07-24T15:38:18;25.70;99.90
1123;DHT22;548;48.778;9.252;2023-07-24T15:40:45;25.50;99.90
1123;DHT22;548;48.778;9.252;2023-07-24T15:43:12;25.20;99.90
1123;DHT22;548;48.778;9.252;2023-07-24T15:45:39;25.00;99.90
1123;DHT22;548;48.778;9.252;2023-07-24T15:48:05;24.90;99.90
1123;DHT22;548;48.778;9.252;2023-07-24T15:50:32;24.70;99.90
1123;DHT22;548;48.778;9.252;2023-07-24T15:52:59;24.50;99.90
1123;DHT22;548;48.778;9.252;2023-07-24T15:55:27;24.20;99.90
1123;DHT22;548;48.778;9.252;2023-07-24T15:57:53;24.10;99.90
1123;DHT22;548;48.778;9.252;2023-07-24T16:00:21;24.20;99.90
1123;DHT22;548;48.778;9.252;2023-07-24T16:02:47;24.20;99.90
1123;DHT22;548;48.778;9.252;2023-07-24T16:05:18;24.20;99.90
1123;DHT22;548;48.778;9.252;2023-07-24T16:07:45;24.10;99.90
1123;DHT22;548;48.778;9.252;2023-07-24T16:10:11;24.20;99.90
1123;DHT22;548;48.778;9.252;2023-07-24T16:12:40;24.40;99.90
1123;DHT22;548;48.778;9.252;2023-07-24T16:15:08;24.40;99.90
1123;DHT22;548;48.778;9.252;2023-07-24T16:17:35;24.30;99.90
1123;DHT22;548;48.778;9.252;2023-07-24T16:20:02;24.20;99.90